createdAt,value
2023-03-17T00:00:29.453Z,7.22
2023-03-17T00:01:21.720Z,7.20
2023-03-17T00:02:13.286Z,7.17
2023-03-17T00:03:06.728Z,7.24
2023-03-17T00:03:58.719Z,7.31
2023-03-17T00:04:50.311Z,7.29
2023-03-17T00:05:42.638Z,7.30
2023-03-17T00:06:35.060Z,7.37
2023-03-17T00:07:26.872Z,7.31
2023-03-17T00:08:25.845Z,7.21
2023-03-17T00:09:19.063Z,7.21
2023-03-17T00:10:17.355Z,7.20
2023-03-17T00:11:17.567Z,7.25
2023-03-17T00:12:12.927Z,7.21
2023-03-17T00:13:04.705Z,7.21
2023-03-17T00:13:56.599Z,7.17
2023-03-17T00:14:48.757Z,7.10
2023-03-17T00:15:40.356Z,7.09
2023-03-17T00:16:38.807Z,7.03
2023-03-17T00:17:31.124Z,7.05
2023-03-17T00:18:23.733Z,6.97
2023-03-17T00:19:33.230Z,6.96
2023-03-17T00:20:31.151Z,7.00
2023-03-17T00:21:34.219Z,7.01
2023-03-17T00:22:26.426Z,6.97
2023-03-17T00:23:21.935Z,6.94
2023-03-17T00:24:15.184Z,6.94
2023-03-17T00:25:29.974Z,7.04
2023-03-17T00:26:23.398Z,7.07
2023-03-17T00:27:15.256Z,7.12
2023-03-17T00:28:15.345Z,7.03
2023-03-17T00:29:08.680Z,6.95
2023-03-17T00:30:00.184Z,6.93
2023-03-17T00:30:56.416Z,7.06
2023-03-17T00:31:49.402Z,7.04
2023-03-17T00:32:41.260Z,6.98
2023-03-17T00:33:37.050Z,6.91
2023-03-17T00:34:28.662Z,6.89
2023-03-17T00:35:23.708Z,6.86
2023-03-17T00:36:19.931Z,6.80
2023-03-17T00:37:12.763Z,6.76
2023-03-17T00:38:05.161Z,6.82
2023-03-17T00:38:58.343Z,6.79
2023-03-17T00:39:50.070Z,6.79
2023-03-17T00:41:36.135Z,6.74
2023-03-17T00:42:28.133Z,6.74
2023-03-17T00:43:19.763Z,6.74
2023-03-17T00:44:11.967Z,6.76
2023-03-17T00:45:03.758Z,6.77
2023-03-17T00:45:55.658Z,6.73
2023-03-17T00:46:49.060Z,6.63
2023-03-17T00:47:40.741Z,6.64
2023-03-17T00:48:32.396Z,6.62
2023-03-17T00:49:26.280Z,6.58
2023-03-17T00:50:22.295Z,6.54
2023-03-17T00:51:16.399Z,6.56
2023-03-17T00:52:08.688Z,6.59
2023-03-17T00:53:01.320Z,6.58
2023-03-17T00:53:52.888Z,6.52
2023-03-17T00:54:45.314Z,6.47
2023-03-17T00:55:37.216Z,6.62
2023-03-17T00:56:28.739Z,6.61
2023-03-17T00:57:20.231Z,6.62
2023-03-17T00:58:29.003Z,6.57
2023-03-17T00:59:27.553Z,6.51
2023-03-17T01:00:22.934Z,6.51
2023-03-17T01:01:14.960Z,6.55
2023-03-17T01:02:07.318Z,6.53
2023-03-17T01:02:59.237Z,6.50
2023-03-17T01:03:52.741Z,6.56
2023-03-17T01:04:49.990Z,6.59
2023-03-17T01:05:44.565Z,6.68
2023-03-17T01:06:37.883Z,6.78
2023-03-17T01:07:30.375Z,6.77
2023-03-17T01:08:23.614Z,6.75
2023-03-17T01:09:18.460Z,6.72
2023-03-17T01:10:21.346Z,6.67
2023-03-17T01:11:19.133Z,6.73
2023-03-17T01:12:14.029Z,6.73
2023-03-17T01:13:06.648Z,6.67
2023-03-17T01:13:58.990Z,6.64
2023-03-17T01:14:50.562Z,6.67
2023-03-17T01:15:45.813Z,6.74
2023-03-17T01:16:37.555Z,6.86
2023-03-17T01:17:29.191Z,6.79
2023-03-17T01:18:22.662Z,6.82
2023-03-17T01:19:14.783Z,6.79
2023-03-17T01:20:11.233Z,6.74
2023-03-17T01:21:03.210Z,6.77
2023-03-17T01:21:55.186Z,6.73
2023-03-17T01:22:47.932Z,6.68
2023-03-17T01:23:39.523Z,6.61
2023-03-17T01:24:31.762Z,6.62
2023-03-17T01:25:23.570Z,6.64
2023-03-17T01:26:15.271Z,6.68
2023-03-17T01:27:07.359Z,6.62
2023-03-17T01:28:00.098Z,6.57
2023-03-17T01:28:51.596Z,6.65
2023-03-17T01:29:43.112Z,6.61
2023-03-17T01:30:38.384Z,6.58
2023-03-17T01:31:30.691Z,6.60
2023-03-17T01:32:22.789Z,6.58
2023-03-17T01:33:15.966Z,6.54
2023-03-17T01:34:07.552Z,6.53
2023-03-17T01:34:59.173Z,6.54
2023-03-17T01:35:51.741Z,6.65
2023-03-17T01:36:43.584Z,6.57
2023-03-17T01:37:35.082Z,6.54
2023-03-17T01:38:26.740Z,6.52
2023-03-17T01:39:18.257Z,6.55
2023-03-17T01:40:17.206Z,6.54
2023-03-17T01:41:08.889Z,6.54
2023-03-17T01:42:01.461Z,6.52
2023-03-17T01:43:10.795Z,6.44
2023-03-17T01:44:02.548Z,6.36
2023-03-17T01:44:58.039Z,6.35
2023-03-17T01:46:14.677Z,6.35
2023-03-17T01:47:07.089Z,6.41
2023-03-17T01:47:59.085Z,6.36
2023-03-17T01:48:57.106Z,6.41
2023-03-17T01:49:49.233Z,6.44
2023-03-17T01:50:42.430Z,6.42
2023-03-17T01:51:44.544Z,6.42
2023-03-17T01:52:39.614Z,6.42
2023-03-17T01:53:32.348Z,6.44
2023-03-17T01:54:34.638Z,6.54
2023-03-17T01:55:26.678Z,6.65
2023-03-17T01:56:19.417Z,6.68
2023-03-17T01:57:19.978Z,6.68
2023-03-17T01:58:13.643Z,6.60
2023-03-17T01:59:10.532Z,6.52
2023-03-17T02:00:09.002Z,6.50
2023-03-17T02:01:07.971Z,6.49
2023-03-17T02:02:08.658Z,6.55
2023-03-17T02:03:00.436Z,6.49
2023-03-17T02:03:53.841Z,6.54
2023-03-17T02:04:45.688Z,6.52
2023-03-17T02:05:39.768Z,6.46
2023-03-17T02:06:32.422Z,6.43
2023-03-17T02:07:26.677Z,6.46
2023-03-17T02:08:18.703Z,6.40
2023-03-17T02:09:10.469Z,6.44
2023-03-17T02:10:04.344Z,6.43
2023-03-17T02:10:57.258Z,6.37
2023-03-17T02:11:50.595Z,6.39
2023-03-17T02:12:45.592Z,6.37
2023-03-17T02:13:38.409Z,6.39
2023-03-17T02:14:30.177Z,6.37
2023-03-17T02:15:22.614Z,6.38
2023-03-17T02:16:17.494Z,6.41
2023-03-17T02:17:12.809Z,6.43
2023-03-17T02:18:09.467Z,6.34
2023-03-17T02:19:02.065Z,6.29
2023-03-17T02:19:55.533Z,6.24
2023-03-17T02:20:47.850Z,6.41
2023-03-17T02:21:45.551Z,6.44
2023-03-17T02:22:38.207Z,6.45
2023-03-17T02:23:30.532Z,6.49
2023-03-17T02:24:41.414Z,6.49
2023-03-17T02:25:36.194Z,6.51
2023-03-17T02:26:33.346Z,6.46
2023-03-17T02:27:35.423Z,6.44
2023-03-17T02:28:31.012Z,6.47
2023-03-17T02:29:23.485Z,6.42
2023-03-17T02:30:19.058Z,6.39
2023-03-17T02:31:11.016Z,6.46
2023-03-17T02:32:02.795Z,6.47
2023-03-17T02:32:54.731Z,6.49
2023-03-17T02:33:46.797Z,6.51
2023-03-17T02:34:39.085Z,6.42
2023-03-17T02:35:31.326Z,6.37
2023-03-17T02:36:23.686Z,6.33
2023-03-17T02:37:17.149Z,6.29
2023-03-17T02:38:08.721Z,6.22
2023-03-17T02:39:01.056Z,6.16
2023-03-17T02:39:55.031Z,6.22
2023-03-17T02:40:46.663Z,6.38
2023-03-17T02:41:38.312Z,6.37
2023-03-17T02:42:29.833Z,6.43
2023-03-17T02:43:23.570Z,6.52
2023-03-17T02:44:15.138Z,6.47
2023-03-17T02:45:09.201Z,6.54
2023-03-17T02:46:01.203Z,6.51
2023-03-17T02:46:52.828Z,6.54
2023-03-17T02:47:44.362Z,6.43
2023-03-17T02:48:36.695Z,6.40
2023-03-17T02:49:30.544Z,6.32
2023-03-17T02:50:25.534Z,6.21
2023-03-17T02:51:19.589Z,6.15
2023-03-17T02:52:11.986Z,6.17
2023-03-17T02:53:03.531Z,6.15
2023-03-17T02:53:55.136Z,6.20
2023-03-17T02:54:46.601Z,6.13
2023-03-17T02:55:38.437Z,6.10
2023-03-17T02:56:30.130Z,6.13
2023-03-17T02:57:21.986Z,6.18
2023-03-17T02:58:13.495Z,6.13
2023-03-17T02:59:05.568Z,6.12
2023-03-17T02:59:57.106Z,6.13
2023-03-17T03:00:49.696Z,6.25
2023-03-17T03:01:41.280Z,6.29
2023-03-17T03:02:33.265Z,6.29
2023-03-17T03:03:24.857Z,6.24
2023-03-17T03:04:17.408Z,6.15
2023-03-17T03:05:09.560Z,6.07
2023-03-17T03:06:03.140Z,6.01
2023-03-17T03:06:56.878Z,5.96
2023-03-17T03:07:48.345Z,5.92
2023-03-17T03:08:39.934Z,5.91
2023-03-17T03:09:31.853Z,5.84
2023-03-17T03:10:23.452Z,5.77
2023-03-17T03:11:18.367Z,5.79
2023-03-17T03:12:11.085Z,5.78
2023-03-17T03:13:03.048Z,5.77
2023-03-17T03:13:54.657Z,5.73
2023-03-17T03:14:46.150Z,5.70
2023-03-17T03:15:38.153Z,5.71
2023-03-17T03:16:29.783Z,5.67
2023-03-17T03:17:21.919Z,5.59
2023-03-17T03:18:13.661Z,5.52
2023-03-17T03:19:05.974Z,5.56
2023-03-17T03:19:57.867Z,5.55
2023-03-17T03:20:49.864Z,5.61
2023-03-17T03:21:41.491Z,5.67
2023-03-17T03:22:32.982Z,5.74
2023-03-17T03:23:24.459Z,5.70
2023-03-17T03:24:16.003Z,5.67
2023-03-17T03:25:08.593Z,5.63
2023-03-17T03:26:00.345Z,5.70
2023-03-17T03:26:52.105Z,5.79
2023-03-17T03:27:43.743Z,5.85
2023-03-17T03:28:35.314Z,5.78
2023-03-17T03:29:27.208Z,5.75
2023-03-17T03:30:19.194Z,5.76
2023-03-17T03:31:11.717Z,5.81
2023-03-17T03:32:03.423Z,5.84
2023-03-17T03:32:55.116Z,5.95
2023-03-17T03:33:46.676Z,5.88
2023-03-17T03:34:38.321Z,5.82
2023-03-17T03:35:30.242Z,5.81
2023-03-17T03:36:22.465Z,5.78
2023-03-17T03:37:13.949Z,5.70
2023-03-17T03:38:06.948Z,5.63
2023-03-17T03:38:58.642Z,5.63
2023-03-17T03:39:50.122Z,5.70
2023-03-17T03:40:42.235Z,5.72
2023-03-17T03:41:33.730Z,5.71
2023-03-17T03:42:25.476Z,5.76
2023-03-17T03:43:23.485Z,5.74
2023-03-17T03:44:15.432Z,5.81
2023-03-17T03:45:07.694Z,5.78
2023-03-17T03:45:59.248Z,5.77
2023-03-17T03:46:51.733Z,5.76
2023-03-17T03:47:43.436Z,5.74
2023-03-17T03:48:35.042Z,5.73
2023-03-17T03:49:26.524Z,5.73
2023-03-17T03:50:18.541Z,5.69
2023-03-17T03:51:10.416Z,5.70
2023-03-17T03:52:01.986Z,5.74
2023-03-17T03:52:53.483Z,5.72
2023-03-17T03:53:45.143Z,5.86
2023-03-17T03:54:37.341Z,5.80
2023-03-17T03:55:28.996Z,5.74
2023-03-17T03:56:20.737Z,5.73
2023-03-17T03:57:12.351Z,5.67
2023-03-17T03:58:03.945Z,5.62
2023-03-17T03:58:56.388Z,5.56
2023-03-17T03:59:47.876Z,5.53
2023-03-17T04:00:39.660Z,5.49
2023-03-17T04:01:31.381Z,5.47
2023-03-17T04:02:23.387Z,5.48
2023-03-17T04:03:16.501Z,5.54
2023-03-17T04:04:08.008Z,5.59
2023-03-17T04:04:59.935Z,5.67
2023-03-17T04:05:51.467Z,5.69
2023-03-17T04:06:44.354Z,5.66
2023-03-17T04:07:37.095Z,5.61
2023-03-17T04:08:28.669Z,5.61
2023-03-17T04:09:20.205Z,5.58
2023-03-17T04:10:13.280Z,5.60
2023-03-17T04:11:04.935Z,5.53
2023-03-17T04:11:56.422Z,5.53
2023-03-17T04:12:47.948Z,5.55
2023-03-17T04:13:39.484Z,5.50
2023-03-17T04:14:30.997Z,5.58
2023-03-17T04:15:23.033Z,5.56
2023-03-17T04:16:14.648Z,5.58
2023-03-17T04:17:06.129Z,5.63
2023-03-17T04:17:57.692Z,5.65
2023-03-17T04:18:49.370Z,5.62
2023-03-17T04:19:41.329Z,5.62
2023-03-17T04:20:33.294Z,5.56
2023-03-17T04:21:24.901Z,5.61
2023-03-17T04:22:16.399Z,5.58
2023-03-17T04:23:07.925Z,5.59
2023-03-17T04:23:59.430Z,5.53
2023-03-17T04:24:50.980Z,5.58
2023-03-17T04:25:42.711Z,5.51
2023-03-17T04:26:34.458Z,5.57
2023-03-17T04:27:26.980Z,5.51
2023-03-17T04:28:19.382Z,5.48
2023-03-17T04:29:15.505Z,5.50
2023-03-17T04:30:10.718Z,5.51
2023-03-17T04:31:02.323Z,5.51
2023-03-17T04:31:53.929Z,5.44
2023-03-17T04:32:46.343Z,5.44
2023-03-17T04:33:38.291Z,5.37
2023-03-17T04:34:29.855Z,5.47
2023-03-17T04:35:25.255Z,5.52
2023-03-17T04:36:22.155Z,5.54
2023-03-17T04:37:13.906Z,5.56
2023-03-17T04:38:05.400Z,5.51
2023-03-17T04:38:56.874Z,5.46
2023-03-17T04:39:48.369Z,5.40
2023-03-17T04:40:39.868Z,5.44
2023-03-17T04:41:31.397Z,5.36
2023-03-17T04:42:22.928Z,5.31
2023-03-17T04:43:14.421Z,5.25
2023-03-17T04:44:06.291Z,5.22
2023-03-17T04:44:57.731Z,5.20
2023-03-17T04:45:49.291Z,5.27
2023-03-17T04:46:40.887Z,5.27
2023-03-17T04:47:32.821Z,5.25
2023-03-17T04:48:24.330Z,5.28
2023-03-17T04:49:16.290Z,5.25
2023-03-17T04:50:09.536Z,5.30
2023-03-17T04:51:01.088Z,5.33
2023-03-17T04:51:52.615Z,5.49
2023-03-17T04:52:44.239Z,5.58
2023-03-17T04:53:35.827Z,5.57
2023-03-17T04:54:27.335Z,5.55
2023-03-17T04:55:18.991Z,5.54
2023-03-17T04:56:11.811Z,5.52
2023-03-17T04:57:03.722Z,5.48
2023-03-17T04:57:55.285Z,5.45
2023-03-17T04:58:46.752Z,5.48
2023-03-17T04:59:38.351Z,5.51
2023-03-17T05:00:30.107Z,5.49
2023-03-17T05:01:22.075Z,5.50
2023-03-17T05:02:13.870Z,5.49
2023-03-17T05:03:19.988Z,5.44
2023-03-17T05:04:30.866Z,5.58
2023-03-17T05:05:23.296Z,5.67
2023-03-17T05:06:15.188Z,5.65
2023-03-17T05:07:06.679Z,5.67
2023-03-17T05:07:58.566Z,5.67
2023-03-17T05:08:50.163Z,5.61
2023-03-17T05:09:43.215Z,5.65
2023-03-17T05:10:34.696Z,5.60
2023-03-17T05:11:26.186Z,5.62
2023-03-17T05:12:17.672Z,5.59
2023-03-17T05:13:09.178Z,5.58
2023-03-17T05:14:00.916Z,5.52
2023-03-17T05:14:52.468Z,5.53
2023-03-17T05:15:48.043Z,5.48
2023-03-17T05:16:39.688Z,5.52
2023-03-17T05:17:31.483Z,5.63
2023-03-17T05:18:26.211Z,5.63
2023-03-17T05:19:19.037Z,5.56
2023-03-17T05:20:11.107Z,5.51
2023-03-17T05:21:03.043Z,5.52
2023-03-17T05:21:54.819Z,5.48
2023-03-17T05:22:46.542Z,5.45
2023-03-17T05:23:38.777Z,5.44
2023-03-17T05:24:30.517Z,5.48
2023-03-17T05:25:22.561Z,5.48
2023-03-17T05:26:14.121Z,5.59
2023-03-17T05:27:05.989Z,5.55
2023-03-17T05:27:58.644Z,5.73
2023-03-17T05:28:50.196Z,5.66
2023-03-17T05:29:42.300Z,5.58
2023-03-17T05:30:36.539Z,5.53
2023-03-17T05:31:28.229Z,5.56
2023-03-17T05:32:19.814Z,5.62
2023-03-17T05:33:12.051Z,5.65
2023-03-17T05:34:04.506Z,5.66
2023-03-17T05:34:56.020Z,5.58
2023-03-17T05:35:47.644Z,5.55
2023-03-17T05:36:39.389Z,5.45
2023-03-17T05:37:31.062Z,5.44
2023-03-17T05:38:22.650Z,5.46
2023-03-17T05:39:14.711Z,5.44
2023-03-17T05:40:06.533Z,5.47
2023-03-17T05:40:58.082Z,5.42
2023-03-17T05:41:50.379Z,5.39
2023-03-17T05:42:42.542Z,5.43
2023-03-17T05:43:34.056Z,5.59
2023-03-17T05:44:25.617Z,5.58
2023-03-17T05:45:17.498Z,5.61
2023-03-17T05:46:09.232Z,5.63
2023-03-17T05:47:01.859Z,5.63
2023-03-17T05:47:53.365Z,5.60
2023-03-17T05:48:44.868Z,5.60
2023-03-17T05:49:36.851Z,5.57
2023-03-17T05:50:28.411Z,5.52
2023-03-17T05:51:20.388Z,5.52
2023-03-17T05:52:12.030Z,5.54
2023-03-17T05:53:03.815Z,5.56
2023-03-17T05:53:55.925Z,5.53
2023-03-17T05:54:48.950Z,5.51
2023-03-17T05:55:40.601Z,5.49
2023-03-17T05:56:33.702Z,5.54
2023-03-17T05:57:25.456Z,5.59
2023-03-17T05:58:17.055Z,5.80
2023-03-17T05:59:09.623Z,5.79
2023-03-17T06:00:01.212Z,5.77
2023-03-17T06:00:52.855Z,5.81
2023-03-17T06:01:45.326Z,5.80
2023-03-17T06:02:36.962Z,5.76
2023-03-17T06:03:28.501Z,5.77
2023-03-17T06:04:20.262Z,5.77
2023-03-17T06:05:12.248Z,5.81
2023-03-17T06:06:04.631Z,5.87
2023-03-17T06:06:56.112Z,5.86
2023-03-17T06:07:54.826Z,5.86
2023-03-17T06:08:47.812Z,5.89
2023-03-17T06:09:40.122Z,5.90
2023-03-17T06:10:32.221Z,5.89
2023-03-17T06:11:24.104Z,5.91
2023-03-17T06:12:16.074Z,5.89
2023-03-17T06:13:07.650Z,5.90
2023-03-17T06:13:59.211Z,5.90
2023-03-17T06:14:50.856Z,5.90
2023-03-17T06:15:43.046Z,5.88
2023-03-17T06:16:34.673Z,5.90
2023-03-17T06:17:26.387Z,5.93
2023-03-17T06:18:19.733Z,5.93
2023-03-17T06:19:11.523Z,5.95
2023-03-17T06:20:05.335Z,6.02
2023-03-17T06:20:57.188Z,6.02
2023-03-17T06:21:48.835Z,6.01
2023-03-17T06:22:51.692Z,6.01
2023-03-17T06:23:52.429Z,6.02
2023-03-17T06:24:43.961Z,6.03
2023-03-17T06:25:35.737Z,6.02
2023-03-17T06:26:27.387Z,6.00
2023-03-17T06:27:19.508Z,5.99
2023-03-17T06:28:11.628Z,6.00
2023-03-17T06:29:09.731Z,6.05
2023-03-17T06:30:01.386Z,6.17
2023-03-17T06:30:53.016Z,6.22
2023-03-17T06:31:50.238Z,6.24
2023-03-17T06:32:41.897Z,6.31
2023-03-17T06:33:34.450Z,6.30
2023-03-17T06:34:26.331Z,6.32
2023-03-17T06:35:18.080Z,6.35
2023-03-17T06:36:10.202Z,6.41
2023-03-17T06:37:01.747Z,6.44
2023-03-17T06:37:53.997Z,6.47
2023-03-17T06:38:46.137Z,6.50
2023-03-17T06:39:37.774Z,6.49
2023-03-17T06:40:30.192Z,6.48
2023-03-17T06:41:22.265Z,6.50
2023-03-17T06:42:14.293Z,6.56
2023-03-17T06:43:05.838Z,6.64
2023-03-17T06:43:57.357Z,6.75
2023-03-17T06:44:52.185Z,6.85
2023-03-17T06:45:43.669Z,6.85
2023-03-17T06:46:36.565Z,6.86
2023-03-17T06:47:28.216Z,6.90
2023-03-17T06:48:19.893Z,6.88
2023-03-17T06:49:13.534Z,6.87
2023-03-17T06:50:09.953Z,7.00
2023-03-17T06:51:02.610Z,7.03
2023-03-17T06:51:54.269Z,7.04
2023-03-17T06:52:46.995Z,7.04
2023-03-17T06:53:38.485Z,7.03
2023-03-17T06:54:30.195Z,7.05
2023-03-17T06:55:21.995Z,7.04
2023-03-17T06:56:28.793Z,7.05
2023-03-17T06:57:21.607Z,7.07
2023-03-17T06:58:13.374Z,7.11
2023-03-17T06:59:08.397Z,7.18
2023-03-17T07:00:03.264Z,7.18
2023-03-17T07:01:01.284Z,7.16
2023-03-17T07:01:54.141Z,7.18
2023-03-17T07:02:46.104Z,7.19
2023-03-17T07:03:38.605Z,7.19
2023-03-17T07:04:31.175Z,7.20
2023-03-17T07:05:23.094Z,7.21
2023-03-17T07:06:14.578Z,7.26
2023-03-17T07:07:06.536Z,7.30
2023-03-17T07:07:58.039Z,7.32
2023-03-17T07:08:50.840Z,7.34
2023-03-17T07:09:42.380Z,7.46
2023-03-17T07:10:34.728Z,7.47
2023-03-17T07:11:26.320Z,7.46
2023-03-17T07:12:17.962Z,7.46
2023-03-17T07:13:10.185Z,7.51
2023-03-17T07:14:02.664Z,7.52
2023-03-17T07:14:54.202Z,7.50
2023-03-17T07:15:45.754Z,7.47
2023-03-17T07:16:37.722Z,7.50
2023-03-17T07:17:30.085Z,7.51
2023-03-17T07:18:21.594Z,7.52
2023-03-17T07:19:13.292Z,7.51
2023-03-17T07:20:06.407Z,7.55
2023-03-17T07:20:58.661Z,7.54
2023-03-17T07:21:50.233Z,7.55
2023-03-17T07:22:42.342Z,7.61
2023-03-17T07:23:33.887Z,7.59
2023-03-17T07:24:26.157Z,7.62
2023-03-17T07:25:17.741Z,7.64
2023-03-17T07:26:09.697Z,7.70
2023-03-17T07:27:01.294Z,7.74
2023-03-17T07:27:53.386Z,7.76
2023-03-17T07:28:44.967Z,7.74
2023-03-17T07:29:36.613Z,7.75
2023-03-17T07:30:28.613Z,7.80
2023-03-17T07:31:20.172Z,7.81
2023-03-17T07:32:11.813Z,7.83
2023-03-17T07:33:04.067Z,7.94
2023-03-17T07:33:57.455Z,8.10
2023-03-17T07:34:49.328Z,8.12
2023-03-17T07:35:41.577Z,8.14
2023-03-17T07:36:33.908Z,8.13
2023-03-17T07:37:25.568Z,8.12
2023-03-17T07:38:18.811Z,8.12
2023-03-17T07:39:12.055Z,8.18
2023-03-17T07:40:05.074Z,8.23
2023-03-17T07:40:56.673Z,8.27
2023-03-17T07:41:52.781Z,8.32
2023-03-17T07:42:45.358Z,8.33
2023-03-17T07:43:38.360Z,8.34
2023-03-17T07:44:30.419Z,8.37
2023-03-17T07:45:22.014Z,8.46
2023-03-17T07:46:14.420Z,8.53
2023-03-17T07:47:06.119Z,8.53
2023-03-17T07:47:57.578Z,8.56
2023-03-17T07:48:49.295Z,8.61
2023-03-17T07:49:42.319Z,8.68
2023-03-17T07:50:35.540Z,8.80
2023-03-17T07:51:28.064Z,8.97
2023-03-17T07:52:19.667Z,9.09
2023-03-17T07:53:11.342Z,9.12
2023-03-17T07:54:06.348Z,9.20
2023-03-17T07:54:58.370Z,9.22
2023-03-17T07:55:49.952Z,9.20
2023-03-17T07:56:42.380Z,9.30
2023-03-17T07:57:34.512Z,9.28
2023-03-17T07:58:26.625Z,9.28
2023-03-17T07:59:18.835Z,9.36
2023-03-17T08:00:13.394Z,9.40
2023-03-17T08:01:06.766Z,9.44
2023-03-17T08:02:00.215Z,9.46
2023-03-17T08:03:07.089Z,9.51
2023-03-17T08:04:01.668Z,9.58
2023-03-17T08:04:53.928Z,9.62
2023-03-17T08:05:45.613Z,9.71
2023-03-17T08:06:37.432Z,9.78
2023-03-17T08:07:31.526Z,9.83
2023-03-17T08:08:24.692Z,9.85
2023-03-17T08:09:16.353Z,9.89
2023-03-17T08:10:09.591Z,9.91
2023-03-17T08:11:03.867Z,9.91
2023-03-17T08:11:55.427Z,9.91
2023-03-17T08:12:51.727Z,10.02
2023-03-17T08:13:43.463Z,10.09
2023-03-17T08:14:34.979Z,10.07
2023-03-17T08:15:26.708Z,10.10
2023-03-17T08:16:18.402Z,10.09
2023-03-17T08:17:10.476Z,10.08
2023-03-17T08:18:02.378Z,10.13
2023-03-17T08:18:53.995Z,10.25
2023-03-17T08:19:45.623Z,10.33
2023-03-17T08:20:37.820Z,10.34
2023-03-17T08:21:30.872Z,10.41
2023-03-17T08:22:23.758Z,10.41
2023-03-17T08:23:15.481Z,10.43
2023-03-17T08:24:07.364Z,10.45
2023-03-17T08:24:58.869Z,10.47
2023-03-17T08:25:50.382Z,10.52
2023-03-17T08:26:42.589Z,10.64
2023-03-17T08:27:34.188Z,10.64
2023-03-17T08:28:27.099Z,10.66
2023-03-17T08:29:18.933Z,10.72
2023-03-17T08:30:12.544Z,10.79
2023-03-17T08:31:15.959Z,10.82
2023-03-17T08:32:08.115Z,10.86
2023-03-17T08:32:59.745Z,10.91
2023-03-17T08:33:54.266Z,10.99
2023-03-17T08:34:46.161Z,11.02
2023-03-17T08:35:41.462Z,11.09
2023-03-17T08:36:33.160Z,11.18
2023-03-17T08:37:24.700Z,11.22
2023-03-17T08:38:16.344Z,11.26
2023-03-17T08:39:10.373Z,11.28
2023-03-17T08:40:01.953Z,11.37
2023-03-17T08:40:53.497Z,11.43
2023-03-17T08:41:45.025Z,11.48
2023-03-17T08:42:37.605Z,11.50
2023-03-17T08:43:29.229Z,11.54
2023-03-17T08:44:21.768Z,11.55
2023-03-17T08:45:15.262Z,11.58
2023-03-17T08:46:20.286Z,11.65
2023-03-17T08:47:11.998Z,11.69
2023-03-17T08:48:04.162Z,11.76
2023-03-17T08:48:58.001Z,11.77
2023-03-17T08:49:50.301Z,11.83
2023-03-17T08:50:42.160Z,11.83
2023-03-17T08:51:36.861Z,11.90
2023-03-17T08:52:28.785Z,11.95
2023-03-17T08:53:20.651Z,12.02
2023-03-17T08:54:12.205Z,12.07
2023-03-17T08:55:03.850Z,12.08
2023-03-17T08:55:59.160Z,12.13
2023-03-17T08:56:51.161Z,12.20
2023-03-17T08:57:44.663Z,12.26
2023-03-17T08:58:39.827Z,12.25
2023-03-17T08:59:31.415Z,12.30
2023-03-17T09:00:23.274Z,12.35
2023-03-17T09:01:15.439Z,12.39
2023-03-17T09:02:11.189Z,12.38
2023-03-17T09:03:03.354Z,12.27
2023-03-17T09:03:55.798Z,12.25
2023-03-17T09:04:48.224Z,12.45
2023-03-17T09:05:39.712Z,12.42
2023-03-17T09:06:31.535Z,12.43
2023-03-17T09:07:23.041Z,12.41
2023-03-17T09:08:14.593Z,12.37
2023-03-17T09:09:06.770Z,12.32
2023-03-17T09:09:59.053Z,12.31
2023-03-17T09:10:51.837Z,12.29
2023-03-17T09:11:43.453Z,12.31
2023-03-17T09:12:35.319Z,12.29
2023-03-17T09:13:27.484Z,12.32
2023-03-17T09:14:19.088Z,12.36
2023-03-17T09:15:12.097Z,12.34
2023-03-17T09:16:03.964Z,12.36
2023-03-17T09:16:56.486Z,12.46
2023-03-17T09:17:48.013Z,12.44
2023-03-17T09:18:39.548Z,12.42
2023-03-17T09:19:31.110Z,12.46
2023-03-17T09:20:22.878Z,12.49
2023-03-17T09:21:16.062Z,12.47
2023-03-17T09:22:07.931Z,12.40
2023-03-17T09:23:00.666Z,12.38
2023-03-17T09:23:52.154Z,12.38
2023-03-17T09:24:43.731Z,12.36
2023-03-17T09:25:37.188Z,12.37
2023-03-17T09:26:28.840Z,12.39
2023-03-17T09:27:20.363Z,12.40
2023-03-17T09:28:12.712Z,12.39
2023-03-17T09:29:05.194Z,12.40
2023-03-17T09:29:56.669Z,12.42
2023-03-17T09:30:48.497Z,12.46
2023-03-17T09:31:41.509Z,12.48
2023-03-17T09:32:33.109Z,12.52
2023-03-17T09:33:24.978Z,12.56
2023-03-17T09:34:16.558Z,12.61
2023-03-17T09:35:08.714Z,12.61
2023-03-17T09:36:00.589Z,12.68
2023-03-17T09:36:55.934Z,12.72
2023-03-17T09:37:48.420Z,12.76
2023-03-17T09:38:40.772Z,12.81
2023-03-17T09:39:33.345Z,12.81
2023-03-17T09:40:32.891Z,12.82
2023-03-17T09:41:50.651Z,12.91
2023-03-17T09:42:56.473Z,12.96
2023-03-17T09:44:18.743Z,12.96
2023-03-17T09:45:26.450Z,13.02
2023-03-17T09:46:48.349Z,13.09
2023-03-17T09:47:48.657Z,13.12
2023-03-17T09:49:03.872Z,13.17
2023-03-17T09:49:59.883Z,13.23
2023-03-17T09:51:18.811Z,13.23
2023-03-17T09:52:18.558Z,13.30
2023-03-17T09:53:22.497Z,13.23
2023-03-17T09:54:31.256Z,13.27
2023-03-17T09:55:28.860Z,13.35
2023-03-17T09:56:21.012Z,13.41
2023-03-17T09:57:22.004Z,13.50
2023-03-17T09:58:14.154Z,13.61
2023-03-17T09:59:28.943Z,13.74
2023-03-17T10:00:29.043Z,13.85
2023-03-17T10:01:21.905Z,13.93
2023-03-17T10:02:22.067Z,13.90
2023-03-17T10:03:14.071Z,13.87
2023-03-17T10:04:06.359Z,13.86
2023-03-17T10:04:58.411Z,13.90
2023-03-17T10:05:50.177Z,13.96
2023-03-17T10:06:46.578Z,14.03
2023-03-17T10:07:50.407Z,14.08
2023-03-17T10:08:53.950Z,14.15
2023-03-17T10:10:01.208Z,14.24
2023-03-17T10:11:18.720Z,14.20
2023-03-17T10:12:29.194Z,14.26
2023-03-17T10:13:23.335Z,14.31
2023-03-17T10:14:49.011Z,14.38
2023-03-17T10:15:51.654Z,14.42
2023-03-17T10:16:54.553Z,14.51
2023-03-17T10:17:47.262Z,14.61
2023-03-17T10:18:48.460Z,14.64
2023-03-17T10:19:43.231Z,14.72
2023-03-17T10:20:46.699Z,14.61
2023-03-17T10:21:50.064Z,14.62
2023-03-17T10:23:02.148Z,14.73
2023-03-17T10:23:57.349Z,14.88
2023-03-17T10:25:01.220Z,14.94
2023-03-17T10:26:00.837Z,14.87
2023-03-17T10:26:57.889Z,14.89
2023-03-17T10:28:11.408Z,15.00
2023-03-17T10:29:04.322Z,15.06
2023-03-17T10:29:56.965Z,15.09
2023-03-17T10:30:48.640Z,15.14
2023-03-17T10:31:40.655Z,15.14
2023-03-17T10:32:38.981Z,15.13
2023-03-17T10:33:30.964Z,15.15
2023-03-17T10:34:26.681Z,15.06
2023-03-17T10:35:19.108Z,14.97
2023-03-17T10:36:15.771Z,15.05
2023-03-17T10:37:13.301Z,15.02
2023-03-17T10:38:24.469Z,15.09
2023-03-17T10:39:21.854Z,14.99
2023-03-17T10:40:25.349Z,14.99
2023-03-17T10:41:16.821Z,14.94
2023-03-17T10:42:23.730Z,14.94
2023-03-17T10:43:22.043Z,14.96
2023-03-17T10:44:28.196Z,15.00
2023-03-17T10:45:32.386Z,15.01
2023-03-17T10:46:26.403Z,15.05
2023-03-17T10:47:26.143Z,14.97
2023-03-17T10:48:18.932Z,15.06
2023-03-17T10:49:17.254Z,15.21
2023-03-17T10:50:14.594Z,15.20
2023-03-17T10:51:11.016Z,15.18
2023-03-17T10:52:08.136Z,15.12
2023-03-17T10:53:30.624Z,15.11
2023-03-17T10:54:25.278Z,15.10
2023-03-17T10:55:21.317Z,15.10
2023-03-17T10:56:24.970Z,15.04
2023-03-17T10:57:18.341Z,15.03
2023-03-17T10:58:09.846Z,14.95
2023-03-17T10:59:08.025Z,14.90
2023-03-17T11:00:02.079Z,14.97
2023-03-17T11:01:02.752Z,15.09
2023-03-17T11:02:05.613Z,15.04
2023-03-17T11:02:59.775Z,15.00
2023-03-17T11:03:51.511Z,14.96
2023-03-17T11:04:43.277Z,14.87
2023-03-17T11:05:34.807Z,14.89
2023-03-17T11:06:39.130Z,14.89
2023-03-17T11:07:39.830Z,14.67
2023-03-17T11:08:39.099Z,14.59
2023-03-17T11:09:35.303Z,14.53
2023-03-17T11:10:27.840Z,14.56
2023-03-17T11:11:29.641Z,14.58
2023-03-17T11:12:26.374Z,14.61
2023-03-17T11:13:17.971Z,14.64
2023-03-17T11:14:15.396Z,14.70
2023-03-17T11:15:14.050Z,14.76
2023-03-17T11:16:24.000Z,14.82
2023-03-17T11:17:39.737Z,14.87
2023-03-17T11:18:37.301Z,14.90
2023-03-17T11:20:04.803Z,14.94
2023-03-17T11:21:09.601Z,15.01
2023-03-17T11:22:30.509Z,15.06
2023-03-17T11:23:53.816Z,15.07
2023-03-17T11:24:59.196Z,15.09
2023-03-17T11:26:08.331Z,15.17
2023-03-17T11:27:20.625Z,15.20
2023-03-17T11:28:20.552Z,15.24
2023-03-17T11:30:01.462Z,15.22
2023-03-17T11:31:13.110Z,15.22
2023-03-17T11:32:46.223Z,15.31
2023-03-17T11:34:04.262Z,15.26
2023-03-17T11:35:12.665Z,15.19
2023-03-17T11:36:33.543Z,15.20
2023-03-17T11:37:51.947Z,15.20
2023-03-17T11:38:58.240Z,15.20
2023-03-17T11:40:19.340Z,15.27
2023-03-17T11:42:07.257Z,15.29
2023-03-17T11:43:34.176Z,15.31
2023-03-17T11:44:50.753Z,15.38
2023-03-17T11:45:50.635Z,15.45
2023-03-17T11:47:17.527Z,15.55
2023-03-17T11:48:27.692Z,15.66
2023-03-17T11:49:34.510Z,15.72
2023-03-17T11:50:47.603Z,15.78
2023-03-17T11:51:49.183Z,15.84
2023-03-17T11:52:59.669Z,15.89
2023-03-17T11:54:02.921Z,15.90
2023-03-17T11:55:23.672Z,15.92
2023-03-17T11:56:44.692Z,15.92
2023-03-17T11:57:48.079Z,16.00
2023-03-17T11:58:44.070Z,16.00
2023-03-17T11:59:54.526Z,16.10
2023-03-17T12:00:54.499Z,16.10
2023-03-17T12:02:33.845Z,16.15
2023-03-17T12:03:43.214Z,16.23
2023-03-17T12:04:43.313Z,16.26